Time;durP1;ratioP1;P1;durP2;ratioP2;P2;SDS_P1;SDS_P2;PMS_P1;PMS_P2;Temp;Humidity;BMP_temperature;BMP_pressure;BME280_temperature;BME280_humidity;BME280_pressure;Samples;Min_cycle;Max_cycle;Signal;HPM_P1;HPM_P2
2022/08/19 00:01:19;;;;;;;7.80;6.90;;;;;;;;;;5076125;28;20567;-73
2022/08/19 00:03:46;;;;;;;10.07;8.13;;;;;;;;;;5075845;28;20494;-73
2022/08/19 00:06:13;;;;;;;9.40;8.43;;;;;;;;;;5076298;28;20458;-73
2022/08/19 00:08:40;;;;;;;9.73;8.73;;;;;;;;;;5075889;28;20878;-73
2022/08/19 00:11:08;;;;;;;9.87;8.97;;;;;;;;;;5076320;28;20485;-73
2022/08/19 00:13:35;;;;;;;9.77;8.70;;;;;;;;;;5075954;28;20464;-74
2022/08/19 00:16:02;;;;;;;10.33;7.80;;;;;;;;;;5076201;28;20447;-73
2022/08/19 00:18:31;;;;;;;11.83;8.80;;;;;;;;;;5076030;28;20825;-74
2022/08/19 00:20:59;;;;;;;10.30;9.17;;;;;;;;;;5076000;28;20455;-74
2022/08/19 00:23:26;;;;;;;12.20;9.83;;;;;;;;;;5075753;28;20899;-74
2022/08/19 00:25:53;;;;;;;11.17;9.77;;;;;;;;;;5075882;28;20452;-73
2022/08/19 00:28:21;;;;;;;9.50;8.43;;;;;;;;;;5075907;28;20451;-73
2022/08/19 00:30:48;;;;;;;10.93;8.60;;;;;;;;;;5075927;28;20451;-73
2022/08/19 00:33:16;;;;;;;10.40;9.40;;;;;;;;;;5075629;28;20478;-73
2022/08/19 00:35:44;;;;;;;11.70;9.63;;;;;;;;;;5075462;28;20452;-73
2022/08/19 00:38:11;;;;;;;12.20;10.00;;;;;;;;;;5075822;28;20929;-73
2022/08/19 00:40:39;;;;;;;14.73;10.30;;;;;;;;;;5075612;28;20460;-73
2022/08/19 00:43:09;;;;;;;13.87;9.63;;;;;;;;;;5075458;28;20487;-73
2022/08/19 00:45:36;;;;;;;13.23;9.93;;;;;;;;;;5075143;28;20554;-73
2022/08/19 00:48:04;;;;;;;12.83;11.53;;;;;;;;;;5075231;28;20447;-73
2022/08/19 00:50:32;;;;;;;13.03;10.60;;;;;;;;;;5075433;28;20477;-73
2022/08/19 00:53:04;;;;;;;16.00;11.60;;;;;;;;;;5075373;28;20471;-73
2022/08/19 00:55:32;;;;;;;14.90;10.70;;;;;;;;;;5075197;28;20451;-73
2022/08/19 00:58:02;;;;;;;13.67;11.10;;;;;;;;;;5075337;28;20523;-73
2022/08/19 01:00:30;;;;;;;14.87;11.13;;;;;;;;;;5075307;28;20463;-73
2022/08/19 01:02:57;;;;;;;11.93;10.37;;;;;;;;;;5075143;28;20500;-73
2022/08/19 01:05:28;;;;;;;11.17;9.97;;;;;;;;;;5074975;28;20455;-73
2022/08/19 01:07:56;;;;;;;11.23;10.03;;;;;;;;;;5075588;28;20487;-74
2022/08/19 01:10:25;;;;;;;12.97;10.07;;;;;;;;;;5075035;28;20941;-73
2022/08/19 01:12:53;;;;;;;10.63;9.60;;;;;;;;;;5074913;28;20498;-73
2022/08/19 01:15:22;;;;;;;11.10;9.87;;;;;;;;;;5074680;28;20458;-73
2022/08/19 01:17:50;;;;;;;11.53;10.33;;;;;;;;;;5075210;28;20802;-73
2022/08/19 01:20:19;;;;;;;12.20;10.70;;;;;;;;;;5074947;28;20452;-73
2022/08/19 01:22:49;;;;;;;11.03;9.87;;;;;;;;;;5074782;28;20491;-74
2022/08/19 01:25:17;;;;;;;11.93;10.67;;;;;;;;;;5074514;28;20459;-73
2022/08/19 01:27:47;;;;;;;12.27;10.93;;;;;;;;;;5074688;28;20459;-73
2022/08/19 01:30:15;;;;;;;10.07;9.07;;;;;;;;;;5074747;28;20462;-74
2022/08/19 01:32:43;;;;;;;10.73;9.60;;;;;;;;;;5074786;28;20472;-73
2022/08/19 01:35:11;;;;;;;12.20;11.00;;;;;;;;;;5074502;28;20859;-73
2022/08/19 01:37:45;;;;;;;11.80;9.60;;;;;;;;;;5074353;28;20511;-73
2022/08/19 01:40:14;;;;;;;13.33;11.73;;;;;;;;;;5074456;28;20452;-73
2022/08/19 01:42:41;;;;;;;15.43;9.90;;;;;;;;;;5074522;28;20495;-73
2022/08/19 01:45:09;;;;;;;10.50;9.50;;;;;;;;;;5074174;28;20459;-73
2022/08/19 01:47:36;;;;;;;10.10;8.60;;;;;;;;;;5074127;28;20456;-73
2022/08/19 01:50:04;;;;;;;10.13;9.00;;;;;;;;;;5073620;28;20456;-73
2022/08/19 01:52:31;;;;;;;11.47;10.10;;;;;;;;;;5074405;28;20448;-73
2022/08/19 01:54:58;;;;;;;10.50;9.40;;;;;;;;;;5074223;28;20452;-73
2022/08/19 01:57:27;;;;;;;13.73;9.30;;;;;;;;;;5074027;28;20478;-73
2022/08/19 01:59:54;;;;;;;11.00;9.10;;;;;;;;;;5074334;28;20925;-73
2022/08/19 02:02:21;;;;;;;11.77;10.30;;;;;;;;;;5073998;28;20476;-73
2022/08/19 02:04:48;;;;;;;11.10;9.60;;;;;;;;;;5073984;28;20455;-73
2022/08/19 02:07:15;;;;;;;10.73;9.37;;;;;;;;;;5073955;28;20467;-73
2022/08/19 02:09:43;;;;;;;12.07;10.67;;;;;;;;;;5074041;28;20451;-73
2022/08/19 02:12:10;;;;;;;11.10;9.90;;;;;;;;;;5074273;28;20447;-73
2022/08/19 02:14:38;;;;;;;11.10;9.97;;;;;;;;;;5073436;28;20467;-73
2022/08/19 02:17:05;;;;;;;11.73;9.47;;;;;;;;;;5073784;28;20967;-73
2022/08/19 02:19:33;;;;;;;9.90;8.87;;;;;;;;;;5073781;28;20456;-73
2022/08/19 02:22:00;;;;;;;10.37;9.37;;;;;;;;;;5073864;28;20836;-73
2022/08/19 02:24:27;;;;;;;12.40;10.07;;;;;;;;;;5073251;28;20475;-73
2022/08/19 02:26:55;;;;;;;10.67;9.10;;;;;;;;;;5073817;28;20467;-73
2022/08/19 02:29:22;;;;;;;10.10;9.10;;;;;;;;;;5073541;28;20455;-74
2022/08/19 02:31:51;;;;;;;8.90;8.03;;;;;;;;;;5073714;28;20831;-73
2022/08/19 02:34:18;;;;;;;8.70;7.80;;;;;;;;;;5073129;28;20525;-73
2022/08/19 02:36:45;;;;;;;11.00;9.50;;;;;;;;;;5073481;28;20823;-73
2022/08/19 02:39:12;;;;;;;9.50;8.50;;;;;;;;;;5073374;28;20460;-73
2022/08/19 02:41:39;;;;;;;9.17;8.00;;;;;;;;;;5073323;28;20453;-73
2022/08/19 02:44:06;;;;;;;11.83;9.40;;;;;;;;;;5072967;28;20479;-73
2022/08/19 02:46:34;;;;;;;10.30;9.30;;;;;;;;;;5073093;28;20499;-73
2022/08/19 02:49:04;;;;;;;9.47;8.60;;;;;;;;;;5073223;28;20840;-73
2022/08/19 02:51:33;;;;;;;9.63;7.80;;;;;;;;;;5073119;28;20471;-74
2022/08/19 02:54:00;;;;;;;12.20;8.70;;;;;;;;;;5072955;28;20471;-73
2022/08/19 02:56:28;;;;;;;10.10;9.00;;;;;;;;;;5073068;28;20456;-73
2022/08/19 02:58:55;;;;;;;10.13;9.13;;;;;;;;;;5073077;28;20463;-73
2022/08/19 03:01:24;;;;;;;9.30;8.30;;;;;;;;;;5072833;28;20452;-74
2022/08/19 03:03:51;;;;;;;9.67;8.23;;;;;;;;;;5072095;28;20500;-73
2022/08/19 03:06:19;;;;;;;10.10;8.83;;;;;;;;;;5073123;28;20447;-74
2022/08/19 03:08:49;;;;;;;8.70;7.80;;;;;;;;;;5072993;28;20808;-73
2022/08/19 03:11:17;;;;;;;9.63;8.53;;;;;;;;;;5072863;28;20903;-73
2022/08/19 03:13:44;;;;;;;8.97;8.07;;;;;;;;;;5072591;28;20561;-74
2022/08/19 03:16:12;;;;;;;8.70;7.80;;;;;;;;;;5072962;28;20452;-73
2022/08/19 03:18:39;;;;;;;9.43;8.20;;;;;;;;;;5072677;28;20467;-73
2022/08/19 03:21:08;;;;;;;10.23;9.23;;;;;;;;;;5072977;28;20452;-73
2022/08/19 03:23:37;;;;;;;11.60;9.33;;;;;;;;;;5072377;28;20487;-73
2022/08/19 03:26:05;;;;;;;14.40;9.47;;;;;;;;;;5072903;28;20456;-74
2022/08/19 03:28:33;;;;;;;9.97;8.90;;;;;;;;;;5073142;28;20499;-73
2022/08/19 03:31:02;;;;;;;8.93;7.80;;;;;;;;;;5073070;28;20460;-73
2022/08/19 03:33:29;;;;;;;10.03;9.03;;;;;;;;;;5072353;28;20475;-73
2022/08/19 03:36:07;;;;;;;9.20;7.67;;;;;;;;;;5072881;28;20448;-73
2022/08/19 03:38:35;;;;;;;9.47;8.07;;;;;;;;;;5072610;28;21007;-73
2022/08/19 03:41:06;;;;;;;9.70;7.80;;;;;;;;;;5072587;28;20455;-73
2022/08/19 03:43:34;;;;;;;9.50;7.80;;;;;;;;;;5072227;28;20494;-73
2022/08/19 03:46:02;;;;;;;8.67;7.77;;;;;;;;;;5072582;28;20848;-73
2022/08/19 03:48:30;;;;;;;8.13;7.33;;;;;;;;;;5072464;28;20498;-73
2022/08/19 03:50:58;;;;;;;7.67;6.87;;;;;;;;;;5072663;28;20463;-73
2022/08/19 03:53:26;;;;;;;8.13;7.33;;;;;;;;;;5072501;28;20553;-73
2022/08/19 03:55:53;;;;;;;8.43;7.73;;;;;;;;;;5072689;28;20941;-73
2022/08/19 03:58:22;;;;;;;7.93;7.13;;;;;;;;;;5072530;28;20483;-74
2022/08/19 04:00:49;;;;;;;7.97;7.17;;;;;;;;;;5072639;28;20456;-73
2022/08/19 04:03:18;;;;;;;8.33;7.50;;;;;;;;;;5072280;28;20494;-73
2022/08/19 04:05:45;;;;;;;8.23;7.43;;;;;;;;;;5072373;28;20880;-74
2022/08/19 04:08:12;;;;;;;8.17;7.47;;;;;;;;;;5072521;28;20818;-74
2022/08/19 04:10:40;;;;;;;7.80;7.07;;;;;;;;;;5072573;28;20455;-74
2022/08/19 04:13:08;;;;;;;7.47;6.87;;;;;;;;;;5072487;28;20608;-74
2022/08/19 04:15:41;;;;;;;7.50;6.40;;;;;;;;;;5075918;28;20485;-74
2022/08/19 04:18:08;;;;;;;7.87;7.10;;;;;;;;;;5076131;28;20463;-73
2022/08/19 04:20:39;;;;;;;8.47;7.60;;;;;;;;;;5076027;28;20455;-74
2022/08/19 04:23:06;;;;;;;8.70;7.60;;;;;;;;;;5075917;28;20494;-74
2022/08/19 04:25:36;;;;;;;7.43;6.73;;;;;;;;;;5075661;28;20455;-74
2022/08/19 04:28:03;;;;;;;7.53;6.37;;;;;;;;;;5075972;28;20459;-74
2022/08/19 04:30:30;;;;;;;7.53;6.83;;;;;;;;;;5075652;28;20450;-74
2022/08/19 04:32:59;;;;;;;8.13;7.33;;;;;;;;;;5075744;28;20474;-74
2022/08/19 04:35:26;;;;;;;7.87;7.07;;;;;;;;;;5075620;28;20455;-74
2022/08/19 04:37:53;;;;;;;8.47;7.67;;;;;;;;;;5075819;28;20452;-74
2022/08/19 04:43:05;;;;;;;7.83;7.00;;;;;;;;;;5075604;28;20502;-74
2022/08/19 04:45:32;;;;;;;7.10;6.50;;;;;;;;;;5075140;28;20475;-74
2022/08/19 04:48:01;;;;;;;7.27;5.90;;;;;;;;;;5075001;28;20451;-74
2022/08/19 04:50:28;;;;;;;6.73;6.00;;;;;;;;;;5075480;28;20459;-74
2022/08/19 04:52:56;;;;;;;8.03;7.23;;;;;;;;;;5075475;28;20467;-74
2022/08/19 04:55:25;;;;;;;6.27;5.70;;;;;;;;;;5075041;28;20485;-74
2022/08/19 04:57:52;;;;;;;6.97;6.27;;;;;;;;;;5075342;28;20502;-74
2022/08/19 05:00:19;;;;;;;7.90;7.10;;;;;;;;;;5075393;28;20837;-73
2022/08/19 05:02:46;;;;;;;6.57;5.97;;;;;;;;;;5075235;28;20490;-74
2022/08/19 05:05:15;;;;;;;9.77;7.00;;;;;;;;;;5074948;28;20458;-74
2022/08/19 05:07:42;;;;;;;10.57;7.30;;;;;;;;;;5075169;28;20452;-74
2022/08/19 05:10:09;;;;;;;6.70;6.10;;;;;;;;;;5075408;28;20466;-74
2022/08/19 05:12:37;;;;;;;7.43;6.70;;;;;;;;;;5075050;28;20448;-74
2022/08/19 05:15:04;;;;;;;7.27;6.67;;;;;;;;;;5074955;28;20941;-73
2022/08/19 05:17:31;;;;;;;6.70;6.10;;;;;;;;;;5074843;28;20826;-74
2022/08/19 05:22:46;;;;;;;8.00;7.20;;;;;;;;;;5074804;28;20459;-74
2022/08/19 05:25:14;;;;;;;9.50;7.43;;;;;;;;;;5073681;28;20459;-74
2022/08/19 05:27:42;;;;;;;7.57;6.70;;;;;;;;;;5075073;28;20458;-74
2022/08/19 05:30:09;;;;;;;8.67;7.00;;;;;;;;;;5074838;28;20455;-74
2022/08/19 05:32:37;;;;;;;8.07;6.93;;;;;;;;;;5074537;28;20471;-74
2022/08/19 05:35:04;;;;;;;7.80;6.83;;;;;;;;;;5074455;28;20456;-74
2022/08/19 05:37:31;;;;;;;13.20;7.10;;;;;;;;;;5074508;28;20459;-74
2022/08/19 05:40:00;;;;;;;10.07;9.03;;;;;;;;;;5074673;28;20458;-74
2022/08/19 05:42:27;;;;;;;9.67;7.30;;;;;;;;;;5074366;28;20994;-74
2022/08/19 05:44:55;;;;;;;7.83;7.10;;;;;;;;;;5074133;28;20480;-74
2022/08/19 05:47:22;;;;;;;9.70;7.77;;;;;;;;;;5074262;28;20455;-74
2022/08/19 05:49:50;;;;;;;9.33;8.43;;;;;;;;;;5073992;28;20979;-74
2022/08/19 05:52:18;;;;;;;7.30;6.60;;;;;;;;;;5074298;28;20945;-74
2022/08/19 05:54:47;;;;;;;9.53;7.97;;;;;;;;;;5075539;28;20474;-75
2022/08/19 05:57:16;;;;;;;8.47;6.97;;;;;;;;;;5092729;28;20450;-74
2022/08/19 05:59:45;;;;;;;8.13;7.37;;;;;;;;;;5093010;28;20516;-74
2022/08/19 06:02:13;;;;;;;9.37;8.47;;;;;;;;;;5092743;28;20451;-74
2022/08/19 06:04:42;;;;;;;7.87;6.87;;;;;;;;;;5092082;28;20534;-74
2022/08/19 06:07:09;;;;;;;8.17;6.70;;;;;;;;;;5092134;28;20868;-74
2022/08/19 06:09:37;;;;;;;9.20;6.70;;;;;;;;;;5092174;28;20455;-74
2022/08/19 06:12:04;;;;;;;9.17;8.27;;;;;;;;;;5092955;28;20458;-74
2022/08/19 06:14:34;;;;;;;9.40;7.33;;;;;;;;;;5092250;28;20502;-74
2022/08/19 06:17:02;;;;;;;8.07;7.07;;;;;;;;;;5086813;28;20486;-74
2022/08/19 06:19:30;;;;;;;7.03;6.33;;;;;;;;;;5092037;28;20455;-74
2022/08/19 06:21:58;;;;;;;8.63;6.87;;;;;;;;;;5092732;28;21011;-73
2022/08/19 06:24:26;;;;;;;7.33;6.63;;;;;;;;;;5091877;28;20531;-74
2022/08/19 06:26:54;;;;;;;7.17;6.50;;;;;;;;;;5092453;28;20960;-74
2022/08/19 06:29:22;;;;;;;7.20;6.50;;;;;;;;;;5092021;28;20459;-74
2022/08/19 06:31:51;;;;;;;7.03;6.30;;;;;;;;;;5092312;28;20477;-74
2022/08/19 06:34:19;;;;;;;7.73;6.70;;;;;;;;;;5091831;28;20471;-74
2022/08/19 06:36:47;;;;;;;7.57;5.90;;;;;;;;;;5092306;28;20531;-74
2022/08/19 06:39:15;;;;;;;5.90;5.17;;;;;;;;;;5091952;28;20462;-75
2022/08/19 06:41:45;;;;;;;7.03;6.43;;;;;;;;;;5092001;28;20827;-74
2022/08/19 06:44:13;;;;;;;10.47;7.30;;;;;;;;;;5091621;28;20497;-74
2022/08/19 06:46:41;;;;;;;8.50;7.63;;;;;;;;;;5091688;28;20974;-74
2022/08/19 06:49:11;;;;;;;6.50;5.90;;;;;;;;;;5091692;28;20451;-74
2022/08/19 06:51:38;;;;;;;7.60;6.23;;;;;;;;;;5091976;28;20458;-74
2022/08/19 06:54:06;;;;;;;10.03;6.50;;;;;;;;;;5091706;28;20968;-74
2022/08/19 06:56:34;;;;;;;6.53;5.93;;;;;;;;;;5091629;28;20970;-74
2022/08/19 06:59:01;;;;;;;6.50;5.73;;;;;;;;;;5092204;28;20490;-74
2022/08/19 07:01:28;;;;;;;6.27;5.67;;;;;;;;;;5091418;28;20461;-74
2022/08/19 07:03:56;;;;;;;8.33;5.70;;;;;;;;;;5091631;28;20494;-74
2022/08/19 07:06:25;;;;;;;5.53;5.03;;;;;;;;;;5091431;28;20439;-74
2022/08/19 07:08:52;;;;;;;7.03;6.37;;;;;;;;;;5091332;28;20459;-74
2022/08/19 07:11:20;;;;;;;6.10;5.50;;;;;;;;;;5091526;28;20458;-74
2022/08/19 07:13:48;;;;;;;5.90;5.30;;;;;;;;;;5091419;28;20833;-74
2022/08/19 07:16:16;;;;;;;8.50;6.90;;;;;;;;;;5091301;28;20816;-74
2022/08/19 07:18:44;;;;;;;5.67;5.13;;;;;;;;;;5091663;28;20458;-74
2022/08/19 07:21:12;;;;;;;7.30;6.40;;;;;;;;;;5091452;28;20892;-74
2022/08/19 07:23:41;;;;;;;6.87;6.13;;;;;;;;;;5090903;28;20526;-74
2022/08/19 07:26:08;;;;;;;6.73;6.03;;;;;;;;;;5091519;28;20835;-74
2022/08/19 07:28:38;;;;;;;9.30;5.43;;;;;;;;;;5091478;28;20466;-74
2022/08/19 07:31:05;;;;;;;6.90;5.60;;;;;;;;;;5091403;28;20513;-74
2022/08/19 07:33:33;;;;;;;6.27;5.67;;;;;;;;;;5090951;28;20513;-74
2022/08/19 07:36:00;;;;;;;5.27;4.77;;;;;;;;;;5091337;28;20553;-74
2022/08/19 07:38:28;;;;;;;5.70;4.97;;;;;;;;;;5091255;28;20960;-74
2022/08/19 07:40:56;;;;;;;6.33;5.73;;;;;;;;;;5091405;28;20454;-74
2022/08/19 07:43:24;;;;;;;6.77;6.00;;;;;;;;;;5090868;28;20519;-74
2022/08/19 07:45:52;;;;;;;6.27;5.67;;;;;;;;;;5090808;28;20467;-74
2022/08/19 07:48:19;;;;;;;7.53;6.83;;;;;;;;;;5091418;28;20450;-74
2022/08/19 07:50:48;;;;;;;7.17;6.47;;;;;;;;;;5095431;28;20459;-73
2022/08/19 07:53:15;;;;;;;7.13;6.07;;;;;;;;;;5094963;28;20991;-74
2022/08/19 07:55:42;;;;;;;7.27;6.60;;;;;;;;;;5094873;28;20454;-74
2022/08/19 07:58:12;;;;;;;6.43;5.80;;;;;;;;;;5095362;28;20989;-74
2022/08/19 08:00:39;;;;;;;7.63;6.93;;;;;;;;;;5092925;28;20454;-74
2022/08/19 08:03:08;;;;;;;7.40;6.77;;;;;;;;;;5085274;28;20870;-74
2022/08/19 08:11:05;;;;;;;9.07;8.17;;;;;;;;;;5095183;28;20796;-74
2022/08/19 08:13:34;;;;;;;10.00;7.53;;;;;;;;;;5094689;28;20585;-74
2022/08/19 08:16:02;;;;;;;8.43;7.03;;;;;;;;;;5095114;28;20830;-74
2022/08/19 08:18:29;;;;;;;12.43;7.60;;;;;;;;;;5095233;28;20818;-73
2022/08/19 08:20:57;;;;;;;9.60;8.57;;;;;;;;;;5095192;28;20453;-74
2022/08/19 08:23:25;;;;;;;9.17;7.97;;;;;;;;;;5094539;28;20846;-74
2022/08/19 08:25:54;;;;;;;9.77;8.63;;;;;;;;;;5094874;28;20454;-74
2022/08/19 08:28:21;;;;;;;8.10;6.83;;;;;;;;;;5094699;28;20458;-74
2022/08/19 08:30:50;;;;;;;8.00;7.20;;;;;;;;;;5094884;28;20792;-74
2022/08/19 08:33:19;;;;;;;8.33;7.53;;;;;;;;;;5094635;28;20485;-74
2022/08/19 08:35:47;;;;;;;9.30;8.40;;;;;;;;;;5095015;28;20872;-74
2022/08/19 08:38:14;;;;;;;11.20;9.43;;;;;;;;;;5094490;28;20460;-73
2022/08/19 08:40:46;;;;;;;9.50;8.10;;;;;;;;;;5094728;28;20450;-74
2022/08/19 08:43:21;;;;;;;9.13;8.17;;;;;;;;;;5094408;28;20471;-73
2022/08/19 08:45:53;;;;;;;8.73;7.70;;;;;;;;;;5094048;28;20516;-73
2022/08/19 08:48:22;;;;;;;11.10;9.87;;;;;;;;;;5093741;28;20458;-73
2022/08/19 08:50:52;;;;;;;10.70;9.20;;;;;;;;;;5094494;28;20450;-73
2022/08/19 08:53:20;;;;;;;19.73;9.23;;;;;;;;;;5094218;28;20499;-73
2022/08/19 08:55:48;;;;;;;9.33;8.33;;;;;;;;;;5088151;28;20472;-73
2022/08/19 08:58:18;;;;;;;11.50;8.10;;;;;;;;;;5073980;28;20491;-72
2022/08/19 09:00:47;;;;;;;9.23;8.33;;;;;;;;;;5072756;28;20463;-72
2022/08/19 09:03:19;;;;;;;10.23;9.20;;;;;;;;;;5092592;28;20983;-73
2022/08/19 09:05:49;;;;;;;10.60;7.53;;;;;;;;;;5095296;28;20522;-72
2022/08/19 09:08:20;;;;;;;7.87;7.17;;;;;;;;;;5095178;28;20477;-73
2022/08/19 09:10:50;;;;;;;8.30;7.47;;;;;;;;;;5095571;28;20826;-73
2022/08/19 09:13:22;;;;;;;9.70;8.80;;;;;;;;;;5095416;28;20466;-73
2022/08/19 09:15:52;;;;;;;8.33;7.53;;;;;;;;;;5095233;28;20451;-73
2022/08/19 09:18:21;;;;;;;9.30;8.47;;;;;;;;;;5095288;28;20454;-72
2022/08/19 09:20:48;;;;;;;10.67;9.57;;;;;;;;;;5095292;28;20801;-73
2022/08/19 09:23:15;;;;;;;9.80;8.83;;;;;;;;;;5094994;28;20478;-73
2022/08/19 09:25:42;;;;;;;11.23;9.80;;;;;;;;;;5095011;28;20493;-72
2022/08/19 09:28:09;;;;;;;11.90;10.60;;;;;;;;;;5095055;28;20446;-72
2022/08/19 09:30:40;;;;;;;9.40;8.50;;;;;;;;;;5095300;28;20446;-72
2022/08/19 09:33:08;;;;;;;9.67;8.77;;;;;;;;;;5095055;28;20478;-72
2022/08/19 09:35:36;;;;;;;13.00;10.80;;;;;;;;;;5094804;28;20449;-72
2022/08/19 09:38:03;;;;;;;13.47;12.17;;;;;;;;;;5095037;28;20446;-72
2022/08/19 09:40:31;;;;;;;8.33;7.53;;;;;;;;;;5095004;28;20451;-72
2022/08/19 09:43:02;;;;;;;8.03;7.33;;;;;;;;;;5094853;28;20470;-72
2022/08/19 09:45:29;;;;;;;11.60;8.63;;;;;;;;;;5094328;28;20494;-72
2022/08/19 09:47:57;;;;;;;9.63;7.57;;;;;;;;;;5083205;28;20447;-72
2022/08/19 09:50:24;;;;;;;9.67;8.00;;;;;;;;;;5083276;28;20967;-72
2022/08/19 09:52:54;;;;;;;8.93;8.13;;;;;;;;;;5078767;28;20972;-73
2022/08/19 09:55:21;;;;;;;9.13;8.33;;;;;;;;;;5073960;28;20502;-72
2022/08/19 09:57:48;;;;;;;9.77;8.73;;;;;;;;;;5074223;28;20530;-72
2022/08/19 10:00:15;;;;;;;11.50;8.17;;;;;;;;;;5074192;28;20448;-72
2022/08/19 10:02:42;;;;;;;8.87;7.97;;;;;;;;;;5086916;28;20860;-72
2022/08/19 10:08:11;;;;;;;7.63;6.93;;;;;;;;;;5016609;28;20779;-72
2022/08/19 10:10:39;;;;;;;7.63;6.80;;;;;;;;;;5018092;28;20545;-73
2022/08/19 10:13:06;;;;;;;10.97;9.63;;;;;;;;;;5046431;28;20489;-73
2022/08/19 10:15:34;;;;;;;7.67;7.07;;;;;;;;;;5087672;28;20485;-73
2022/08/19 10:18:01;;;;;;;9.10;8.30;;;;;;;;;;5077389;28;20471;-73
2022/08/19 10:20:29;;;;;;;9.50;8.70;;;;;;;;;;5079365;28;20470;-73
2022/08/19 10:22:56;;;;;;;10.60;9.70;;;;;;;;;;5083825;28;20835;-73
2022/08/19 10:25:26;;;;;;;9.53;8.73;;;;;;;;;;5073391;28;20491;-73
2022/08/19 10:27:53;;;;;;;9.80;8.13;;;;;;;;;;5073755;28;20546;-73
2022/08/19 10:30:21;;;;;;;9.40;8.50;;;;;;;;;;5073623;28;20462;-73
2022/08/19 10:32:48;;;;;;;8.97;8.07;;;;;;;;;;5073630;28;20482;-73
2022/08/19 10:35:17;;;;;;;14.40;13.03;;;;;;;;;;5089030;28;20478;-73
2022/08/19 10:37:44;;;;;;;8.63;7.83;;;;;;;;;;5082757;28;20949;-73
2022/08/19 10:40:11;;;;;;;10.70;9.70;;;;;;;;;;5073651;28;20456;-73
2022/08/19 10:42:40;;;;;;;9.87;8.97;;;;;;;;;;5079475;28;20462;-73
2022/08/19 10:45:09;;;;;;;11.70;10.23;;;;;;;;;;5082659;28;20491;-73
2022/08/19 10:47:37;;;;;;;10.67;9.77;;;;;;;;;;5082193;28;20459;-73
2022/08/19 10:52:50;;;;;;;9.97;9.17;;;;;;;;;;5084182;28;20478;-73
2022/08/19 10:58:05;;;;;;;10.30;9.40;;;;;;;;;;5093072;28;20414;-73
2022/08/19 11:00:32;;;;;;;10.27;9.37;;;;;;;;;;5081030;28;20455;-73
2022/08/19 11:02:59;;;;;;;11.10;8.90;;;;;;;;;;5072599;28;20485;-73
2022/08/19 11:05:26;;;;;;;11.57;10.47;;;;;;;;;;5071163;28;20483;-74
2022/08/19 11:07:54;;;;;;;10.30;9.40;;;;;;;;;;5072299;28;20969;-73
2022/08/19 11:10:21;;;;;;;10.90;9.80;;;;;;;;;;5071985;28;20478;-73
2022/08/19 11:12:48;;;;;;;9.37;8.47;;;;;;;;;;5072197;28;20471;-73
2022/08/19 11:15:17;;;;;;;8.93;8.13;;;;;;;;;;5071795;28;20455;-73
2022/08/19 11:17:44;;;;;;;8.30;7.57;;;;;;;;;;5072350;28;20459;-74
2022/08/19 11:20:12;;;;;;;9.33;8.53;;;;;;;;;;5072878;28;20462;-73
2022/08/19 11:22:39;;;;;;;11.53;9.40;;;;;;;;;;5072470;28;20462;-73
2022/08/19 11:25:07;;;;;;;9.17;8.23;;;;;;;;;;5072229;28;20572;-73
2022/08/19 11:27:34;;;;;;;8.60;7.90;;;;;;;;;;5072939;28;20447;-73
2022/08/19 11:30:03;;;;;;;9.10;8.20;;;;;;;;;;5072883;28;20456;-73
2022/08/19 11:32:32;;;;;;;9.80;8.80;;;;;;;;;;5072302;28;20535;-73
2022/08/19 11:34:59;;;;;;;8.00;7.20;;;;;;;;;;5077975;28;20434;-73
2022/08/19 11:37:26;;;;;;;8.37;7.67;;;;;;;;;;5078155;28;20887;-73
2022/08/19 11:39:54;;;;;;;8.47;7.67;;;;;;;;;;5072875;28;20550;-72
2022/08/19 11:45:06;;;;;;;10.23;8.73;;;;;;;;;;5072595;28;20483;-73
2022/08/19 11:47:35;;;;;;;9.40;8.60;;;;;;;;;;5072862;28;20448;-73
2022/08/19 11:50:02;;;;;;;9.07;8.27;;;;;;;;;;5072739;28;20452;-74
2022/08/19 11:52:29;;;;;;;7.80;7.10;;;;;;;;;;5072565;28;20539;-73
2022/08/19 11:54:56;;;;;;;7.53;6.83;;;;;;;;;;5072595;28;20443;-73
2022/08/19 11:57:23;;;;;;;9.03;8.13;;;;;;;;;;5072688;28;20463;-73
2022/08/19 11:59:51;;;;;;;9.20;8.37;;;;;;;;;;5072780;28;20817;-73
2022/08/19 12:02:18;;;;;;;9.70;8.80;;;;;;;;;;5072866;28;20447;-73
2022/08/19 12:04:47;;;;;;;8.80;8.00;;;;;;;;;;5072201;28;20472;-73
2022/08/19 12:07:14;;;;;;;8.57;7.87;;;;;;;;;;5072587;28;20447;-73
2022/08/19 12:09:42;;;;;;;8.10;7.40;;;;;;;;;;5072250;28;20463;-73
2022/08/19 12:12:10;;;;;;;10.47;9.47;;;;;;;;;;5083394;28;20451;-73
2022/08/19 12:14:37;;;;;;;8.73;7.83;;;;;;;;;;5082284;28;20462;-73
2022/08/19 12:17:07;;;;;;;9.37;8.47;;;;;;;;;;5082243;28;20444;-73
2022/08/19 12:19:35;;;;;;;9.60;8.70;;;;;;;;;;5080800;28;20451;-73
2022/08/19 12:22:05;;;;;;;10.20;9.30;;;;;;;;;;5081083;28;20525;-73
2022/08/19 12:24:33;;;;;;;7.90;7.20;;;;;;;;;;5080562;28;20511;-73
2022/08/19 12:27:01;;;;;;;8.37;6.90;;;;;;;;;;5082300;28;20547;-73
2022/08/19 12:29:29;;;;;;;7.77;7.10;;;;;;;;;;5082664;28;20459;-73
2022/08/19 12:32:00;;;;;;;9.00;8.10;;;;;;;;;;5072192;28;20988;-74
2022/08/19 12:34:29;;;;;;;7.87;7.07;;;;;;;;;;5072342;28;20479;-73
2022/08/19 12:36:56;;;;;;;8.87;8.07;;;;;;;;;;5076296;28;20444;-73
2022/08/19 12:39:25;;;;;;;7.47;6.77;;;;;;;;;;5087297;28;21041;-73
2022/08/19 12:41:52;;;;;;;10.80;7.73;;;;;;;;;;5096205;28;20447;-73
2022/08/19 12:44:20;;;;;;;8.43;7.63;;;;;;;;;;5095713;28;20541;-72
2022/08/19 12:46:49;;;;;;;13.23;8.43;;;;;;;;;;5095873;28;20490;-73
2022/08/19 12:49:17;;;;;;;9.13;7.00;;;;;;;;;;5096133;28;20898;-75
2022/08/19 12:51:44;;;;;;;7.07;6.53;;;;;;;;;;5096174;28;20508;-73
2022/08/19 12:54:11;;;;;;;7.43;6.73;;;;;;;;;;5095404;28;20475;-73
2022/08/19 12:56:40;;;;;;;6.40;5.90;;;;;;;;;;5095602;28;20493;-72
2022/08/19 12:59:08;;;;;;;6.10;5.50;;;;;;;;;;5095667;28;20447;-72
2022/08/19 13:01:35;;;;;;;6.77;6.20;;;;;;;;;;5095647;28;20453;-72
2022/08/19 13:04:03;;;;;;;7.53;6.40;;;;;;;;;;5095438;28;20971;-72
2022/08/19 13:06:30;;;;;;;8.20;7.50;;;;;;;;;;5095471;28;21066;-74
2022/08/19 13:08:57;;;;;;;6.33;5.73;;;;;;;;;;5095644;28;20532;-72
2022/08/19 13:11:25;;;;;;;6.40;5.80;;;;;;;;;;5095338;28;20458;-72
2022/08/19 13:13:54;;;;;;;7.83;7.03;;;;;;;;;;5094886;28;20474;-73
2022/08/19 13:16:22;;;;;;;6.10;5.50;;;;;;;;;;5095290;28;20447;-73
2022/08/19 13:18:51;;;;;;;7.73;6.93;;;;;;;;;;5095460;28;20454;-72
2022/08/19 13:21:19;;;;;;;6.00;5.40;;;;;;;;;;5095255;28;20497;-73
2022/08/19 13:23:47;;;;;;;5.43;4.93;;;;;;;;;;5095125;28;20531;-73
2022/08/19 13:26:15;;;;;;;6.00;5.50;;;;;;;;;;5095297;28;21017;-72
2022/08/19 13:34:15;;;;;;;7.40;6.70;;;;;;;;;;5094688;28;20458;-73
2022/08/19 13:36:42;;;;;;;5.80;5.30;;;;;;;;;;5095007;28;20442;-72
2022/08/19 13:39:10;;;;;;;6.63;6.03;;;;;;;;;;5095068;28;20458;-72
2022/08/19 13:41:38;;;;;;;10.13;5.80;;;;;;;;;;5094848;28;20517;-72
2022/08/19 13:44:06;;;;;;;6.73;6.13;;;;;;;;;;5094715;28;20562;-72
2022/08/19 13:46:34;;;;;;;6.83;6.23;;;;;;;;;;5093700;28;20498;-72
2022/08/19 13:49:01;;;;;;;6.50;6.00;;;;;;;;;;5094847;28;20469;-72
2022/08/19 13:51:28;;;;;;;8.40;6.57;;;;;;;;;;5094619;28;20486;-73
2022/08/19 13:53:56;;;;;;;10.03;6.33;;;;;;;;;;5094492;28;20501;-73
2022/08/19 13:56:23;;;;;;;6.93;6.33;;;;;;;;;;5094478;28;20814;-72
2022/08/19 13:58:50;;;;;;;6.43;5.93;;;;;;;;;;5094799;28;20453;-72
2022/08/19 14:01:21;;;;;;;6.23;5.73;;;;;;;;;;5094473;28;20447;-73
2022/08/19 14:03:50;;;;;;;6.47;4.97;;;;;;;;;;5094293;28;20932;-73
2022/08/19 14:06:18;;;;;;;11.20;6.73;;;;;;;;;;5094327;28;20867;-72
2022/08/19 14:08:45;;;;;;;7.70;7.10;;;;;;;;;;5094321;28;20852;-74
2022/08/19 14:11:12;;;;;;;7.20;5.80;;;;;;;;;;5094440;28;20450;-73
2022/08/19 14:13:39;;;;;;;5.80;5.30;;;;;;;;;;5094076;28;20467;-73
2022/08/19 14:16:10;;;;;;;5.30;4.90;;;;;;;;;;5094354;28;20459;-72
2022/08/19 14:18:38;;;;;;;5.80;5.20;;;;;;;;;;5094102;28;20458;-72
2022/08/19 14:21:07;;;;;;;6.13;5.47;;;;;;;;;;5094187;28;20463;-72
2022/08/19 14:23:35;;;;;;;6.10;5.53;;;;;;;;;;5090392;28;20483;-73
2022/08/19 14:26:07;;;;;;;5.17;4.60;;;;;;;;;;5080156;28;20476;-72
2022/08/19 14:28:34;;;;;;;5.77;5.27;;;;;;;;;;5082263;28;21040;-72
2022/08/19 14:31:01;;;;;;;5.87;5.37;;;;;;;;;;5091547;28;20967;-72
2022/08/19 14:33:28;;;;;;;5.63;4.97;;;;;;;;;;5093804;28;20470;-72
2022/08/19 14:35:55;;;;;;;5.13;4.73;;;;;;;;;;5093944;28;20447;-72
2022/08/19 14:38:24;;;;;;;6.13;5.27;;;;;;;;;;5094009;28;20480;-72
2022/08/19 14:40:51;;;;;;;7.63;6.87;;;;;;;;;;5093707;28;20451;-72
2022/08/19 14:43:19;;;;;;;5.80;5.20;;;;;;;;;;5093687;28;20849;-72
2022/08/19 14:45:46;;;;;;;5.70;5.20;;;;;;;;;;5093580;28;20486;-72
2022/08/19 14:48:13;;;;;;;5.37;4.87;;;;;;;;;;5093631;28;20450;-72
2022/08/19 14:50:41;;;;;;;5.40;5.00;;;;;;;;;;5093829;28;20802;-72
2022/08/19 14:53:09;;;;;;;7.07;4.57;;;;;;;;;;5093571;28;20470;-72
2022/08/19 14:55:37;;;;;;;5.60;5.10;;;;;;;;;;5093222;28;20455;-72
2022/08/19 14:58:05;;;;;;;5.43;4.50;;;;;;;;;;5093998;28;20462;-72
2022/08/19 15:00:32;;;;;;;7.60;4.63;;;;;;;;;;5093435;28;20454;-72
2022/08/19 15:02:59;;;;;;;6.33;5.77;;;;;;;;;;5093422;28;20478;-72
2022/08/19 15:05:27;;;;;;;11.67;5.60;;;;;;;;;;5093339;28;20460;-72
2022/08/19 15:07:56;;;;;;;6.77;6.17;;;;;;;;;;5093448;28;20916;-74
2022/08/19 15:10:24;;;;;;;6.83;6.23;;;;;;;;;;5093170;28;20537;-74